Dades meteomassalio
Diari Summary for Febrer 23, 2017 Units:  Metric    English   Both
« Previous Day
Next Day »
Diari Semanal Mensual Anual Personalitzat
  Maxima: Minima: Mijana:
Temperatura: 15.3 °C 5.1 °C 9.1 °C
Rosada: 9.7 °C 3.8 °C 6.4 °C
Humitat: 92 % 62 % 84 %
Velocitat del vent: 9.7 km/h 0.0 km/h 1.1 km/h
Racha vent: 9.7 km/h - -
Vent:- - ENE
Pressio: 1021.2 hPa 1014.1 hPa -
Pluja: 0.0 mm    
Historical Graphs
 
 
Tabular Data for Febrer 23, 2017
Time Temperature Dew Point Pressure Wind Wind Speed Wind Gust Humidity Rainfall Rate (Hourly) solar Conditions
00:04 6.3 °C 4.5 °C 1021.2 hPa Calm     88 % 0.0 mm 0.0 W/m2 RA
00:09 6.3 °C 4.5 °C 1021.2 hPa SSW 3.7 km/h   88 % 0.0 mm 0.0 W/m2 CLR
00:14 6.3 °C 4.5 °C 1021.2 hPa Calm     88 % 0.0 mm 0.0 W/m2 CLR
00:19 6.3 °C 4.5 °C 1021.2 hPa Calm     88 % 0.0 mm 0.0 W/m2 CLR
00:24 6.3 °C 4.4 °C 1020.9 hPa Calm     88 % 0.0 mm 0.0 W/m2 CLR
00:29 6.2 °C 4.4 °C 1020.9 hPa Calm     88 % 0.0 mm 0.0 W/m2 CLR
00:34 6.3 °C 4.5 °C 1021.2 hPa SW 3.2 km/h 3.2 km/h 88 % 0.0 mm 0.0 W/m2 CLR
00:39 6.3 °C 4.5 °C 1020.9 hPa Calm     88 % 0.0 mm 0.0 W/m2 CLR
00:44 6.3 °C 4.5 °C 1021.2 hPa Calm     88 % 0.0 mm 0.0 W/m2 CLR
00:49 6.2 °C 4.4 °C 1020.9 hPa Calm     88 % 0.0 mm 0.0 W/m2 CLR
00:54 6.1 °C 4.2 °C 1020.9 hPa Calm     88 % 0.0 mm 0.0 W/m2 CLR
00:59 6.1 °C 4.4 °C 1020.9 hPa WSW 5.6 km/h 5.6 km/h 89 % 0.0 mm 0.0 W/m2 CLR
01:04 6.1 °C 4.4 °C 1020.9 hPa Calm     89 % 0.0 mm 0.0 W/m2 CLR
01:09 6.1 °C 4.4 °C 1020.9 hPa Calm     89 % 0.0 mm 0.0 W/m2 CLR
01:14 6.1 °C 4.3 °C 1020.9 hPa Calm     88 % 0.0 mm 0.0 W/m2 CLR
01:19 6.1 °C 4.4 °C 1020.9 hPa Calm     89 % 0.0 mm 0.0 W/m2 CLR
01:24 6.1 °C 4.4 °C 1020.9 hPa Calm     89 % 0.0 mm 0.0 W/m2 CLR
01:29 6.1 °C 4.4 °C 1020.9 hPa Calm     89 % 0.0 mm 0.0 W/m2 CLR
01:34 6.1 °C 4.4 °C 1020.9 hPa Calm     89 % 0.0 mm 0.0 W/m2 CLR
01:39 6.0 °C 4.2 °C 1020.9 hPa Calm     88 % 0.0 mm 0.0 W/m2 CLR
01:44 5.9 °C 4.2 °C 1020.9 hPa Calm     89 % 0.0 mm 0.0 W/m2 CLR
01:49 5.8 °C 4.2 °C 1020.9 hPa Calm     89 % 0.0 mm 0.0 W/m2 CLR
01:54 5.8 °C 4.1 °C 1020.9 hPa Calm     89 % 0.0 mm 0.0 W/m2 CLR
01:59 5.8 °C 4.1 °C 1020.9 hPa Calm     89 % 0.0 mm 0.0 W/m2 CLR
02:04 5.8 °C 4.3 °C 1020.9 hPa Calm     90 % 0.0 mm 0.0 W/m2 CLR
02:09 5.8 °C 4.3 °C 1020.5 hPa Calm     90 % 0.0 mm 0.0 W/m2 CLR
02:15 5.8 °C 4.3 °C 1020.5 hPa Calm     90 % 0.0 mm 0.0 W/m2 CLR
02:20 5.8 °C 4.3 °C 1020.5 hPa Calm     90 % 0.0 mm 0.0 W/m2 CLR
02:25 5.7 °C 4.2 °C 1020.5 hPa Calm     90 % 0.0 mm 0.0 W/m2 CLR
02:30 5.7 °C 4.2 °C 1020.5 hPa Calm     90 % 0.0 mm 0.0 W/m2 CLR
02:35 5.7 °C 4.2 °C 1020.5 hPa Calm     90 % 0.0 mm 0.0 W/m2 CLR
02:40 5.6 °C 4.1 °C 1020.5 hPa Calm     90 % 0.0 mm 0.0 W/m2 CLR
02:45 5.6 °C 4.1 °C 1020.5 hPa Calm     90 % 0.0 mm 0.0 W/m2 CLR
02:50 5.6 °C 4.1 °C 1020.5 hPa Calm     90 % 0.0 mm 0.0 W/m2 CLR
02:55 5.6 °C 4.1 °C 1020.5 hPa Calm     90 % 0.0 mm 0.0 W/m2 CLR
03:00 5.4 °C 3.9 °C 1020.2 hPa Calm     90 % 0.0 mm 0.0 W/m2 CLR
03:05 5.4 °C 3.9 °C 1020.2 hPa Calm     90 % 0.0 mm 0.0 W/m2 CLR
03:10 5.3 °C 3.8 °C 1020.2 hPa Calm     90 % 0.0 mm 0.0 W/m2 CLR
03:15 5.3 °C 3.8 °C 1020.2 hPa Calm     90 % 0.0 mm 0.0 W/m2 CLR
03:20 5.3 °C 3.8 °C 1020.2 hPa Calm     90 % 0.0 mm 0.0 W/m2 CLR
03:25 5.3 °C 4.0 °C 1019.9 hPa Calm     91 % 0.0 mm 0.0 W/m2 CLR
03:30 5.3 °C 4.0 °C 1019.9 hPa Calm     91 % 0.0 mm 0.0 W/m2 CLR
03:35 5.3 °C 4.0 °C 1019.9 hPa Calm     91 % 0.0 mm 0.0 W/m2 CLR
03:40 5.4 °C 4.1 °C 1019.9 hPa Calm     91 % 0.0 mm 0.0 W/m2 CLR
03:45 5.3 °C 3.9 °C 1019.9 hPa Calm     91 % 0.0 mm 0.0 W/m2 CLR
03:50 5.3 °C 3.9 °C 1019.5 hPa Calm     91 % 0.0 mm 0.0 W/m2 CLR
03:55 5.4 °C 4.1 °C 1019.5 hPa Calm     91 % 0.0 mm 0.0 W/m2 CLR
04:00 5.4 °C 4.1 °C 1019.5 hPa Calm     91 % 0.0 mm 0.0 W/m2 CLR
04:05 5.4 °C 4.1 °C 1019.5 hPa Calm     91 % 0.0 mm 0.0 W/m2 CLR
04:10 5.3 °C 4.0 °C 1019.5 hPa Calm     91 % 0.0 mm 0.0 W/m2 CLR
04:15 5.3 °C 3.9 °C 1019.5 hPa Calm     91 % 0.0 mm 0.0 W/m2 CLR
04:20 5.3 °C 3.9 °C 1019.5 hPa Calm     91 % 0.0 mm 0.0 W/m2 CLR
04:25 5.3 °C 4.0 °C 1019.5 hPa Calm     91 % 0.0 mm 0.0 W/m2 CLR
04:30 5.3 °C 3.9 °C 1019.5 hPa Calm     91 % 0.0 mm 0.0 W/m2 CLR
04:31 5.3 °C 3.9 °C 1019.5 hPa Calm     91 % 0.0 mm 0.0 W/m2 CLR
04:36 5.2 °C 3.9 °C 1019.5 hPa Calm     91 % 0.0 mm 0.0 W/m2 CLR
04:41 5.1 °C 3.8 °C 1019.5 hPa Calm     91 % 0.0 mm 0.0 W/m2 CLR
04:46 5.1 °C 3.8 °C 1019.2 hPa Calm     91 % 0.0 mm 0.0 W/m2 CLR
04:51 5.2 °C 4.1 °C 1019.2 hPa Calm     92 % 0.0 mm 0.0 W/m2 CLR
04:56 5.3 °C 4.1 °C 1019.2 hPa South 1.9 km/h 1.9 km/h 92 % 0.0 mm 0.0 W/m2 CLR
05:01 5.3 °C 3.9 °C 1019.2 hPa Calm     91 % 0.0 mm 0.0 W/m2 CLR
05:06 5.3 °C 4.1 °C 1019.2 hPa Calm     92 % 0.0 mm 0.0 W/m2 CLR
05:11 5.3 °C 4.1 °C 1019.2 hPa Calm     92 % 0.0 mm 0.0 W/m2 CLR
05:16 5.3 °C 4.1 °C 1019.2 hPa Calm     92 % 0.0 mm 0.0 W/m2 CLR
05:21 5.3 °C 4.1 °C 1019.2 hPa Calm     92 % 0.0 mm 0.0 W/m2 CLR
05:26 5.2 °C 4.1 °C 1019.2 hPa Calm     92 % 0.0 mm 0.0 W/m2 CLR
05:31 5.2 °C 4.1 °C 1019.2 hPa Calm     92 % 0.0 mm 0.0 W/m2 CLR
05:36 5.2 °C 4.1 °C 1019.5 hPa Calm     92 % 0.0 mm 0.0 W/m2 CLR
05:41 5.3 °C 4.1 °C 1019.2 hPa Calm     92 % 0.0 mm 0.0 W/m2 CLR
05:46 5.3 °C 4.1 °C 1019.2 hPa Calm     92 % 0.0 mm 0.0 W/m2 CLR
05:51 5.3 °C 4.1 °C 1019.2 hPa Calm     92 % 0.0 mm 0.0 W/m2 CLR
05:56 5.3 °C 4.1 °C 1019.2 hPa Calm     92 % 0.0 mm 0.0 W/m2 CLR
06:01 5.2 °C 4.1 °C 1019.2 hPa Calm     92 % 0.0 mm 0.0 W/m2 CLR
06:06 5.2 °C 4.1 °C 1019.2 hPa Calm     92 % 0.0 mm 0.0 W/m2 CLR
06:11 5.2 °C 4.1 °C 1019.2 hPa Calm     92 % 0.0 mm 0.0 W/m2 CLR
06:16 5.3 °C 4.1 °C 1019.2 hPa Calm     92 % 0.0 mm 0.0 W/m2 CLR
06:21 5.3 °C 4.1 °C 1019.2 hPa Calm     92 % 0.0 mm 0.0 W/m2 CLR
06:26 5.3 °C 4.1 °C 1019.2 hPa Calm     92 % 0.0 mm 0.0 W/m2 CLR
06:31 5.3 °C 4.1 °C 1019.2 hPa Calm     92 % 0.0 mm 0.0 W/m2 CLR
06:36 5.2 °C 4.1 °C 1019.2 hPa Calm     92 % 0.0 mm 0.0 W/m2 CLR
06:41 5.2 °C 4.1 °C 1019.2 hPa Calm     92 % 0.0 mm 0.0 W/m2 CLR
06:46 5.3 °C 4.1 °C 1019.2 hPa Calm     92 % 0.0 mm 0.0 W/m2 CLR
06:51 5.3 °C 4.1 °C 1019.2 hPa Calm     92 % 0.0 mm 0.0 W/m2 CLR
06:56 5.3 °C 4.1 °C 1019.2 hPa Calm     92 % 0.0 mm 0.0 W/m2 CLR
07:01 5.3 °C 4.1 °C 1019.2 hPa Calm     92 % 0.0 mm 0.0 W/m2 CLR
07:06 5.4 °C 4.2 °C 1019.2 hPa Calm     92 % 0.0 mm 0.0 W/m2 CLR
07:11 5.4 °C 4.2 °C 1019.2 hPa Calm     92 % 0.0 mm 0.0 W/m2 CLR
07:16 5.4 °C 4.2 °C 1018.8 hPa Calm     92 % 0.0 mm 0.0 W/m2 CLR
07:21 5.3 °C 4.1 °C 1018.8 hPa Calm     92 % 0.0 mm 0.0 W/m2 CLR
07:22 5.3 °C 4.1 °C 1018.8 hPa Calm     92 % 0.0 mm 0.0 W/m2 CLR
07:27 5.2 °C 4.1 °C 1018.8 hPa Calm     92 % 0.0 mm 0.0 W/m2 CLR
07:32 5.2 °C 4.0 °C 1018.8 hPa Calm     92 % 0.0 mm 0.0 W/m2 OVC
07:37 5.2 °C 4.1 °C 1019.2 hPa Calm     92 % 0.0 mm 0.0 W/m2 OVC
07:42 5.3 °C 4.1 °C 1018.8 hPa Calm     92 % 0.0 mm 0.0 W/m2 OVC
07:47 5.4 °C 4.2 °C 1018.8 hPa Calm     92 % 0.0 mm 0.0 W/m2 OVC
07:52 5.4 °C 4.2 °C 1018.8 hPa Calm     92 % 0.0 mm 0.0 W/m2 OVC
07:57 5.4 °C 4.2 °C 1018.8 hPa Calm     92 % 0.0 mm 5.0 W/m2 OVC
08:02 5.3 °C 4.1 °C 1018.8 hPa Calm     92 % 0.0 mm 7.0 W/m2 BKN
08:07 5.3 °C 4.1 °C 1019.2 hPa Calm     92 % 0.0 mm 9.0 W/m2 BKN
08:12 5.4 °C 4.2 °C 1019.2 hPa Calm     92 % 0.0 mm 11.0 W/m2 BKN
08:17 5.4 °C 4.2 °C 1019.2 hPa Calm     92 % 0.0 mm 14.0 W/m2 BKN
08:22 5.4 °C 4.2 °C 1019.5 hPa Calm     92 % 0.0 mm 16.0 W/m2 BKN
08:27 5.4 °C 4.2 °C 1019.5 hPa Calm     92 % 0.0 mm 19.0 W/m2 BKN
08:32 5.5 °C 4.3 °C 1019.5 hPa Calm     92 % 0.0 mm 23.0 W/m2 BKN
08:37 5.6 °C 4.3 °C 1019.5 hPa Calm     92 % 0.0 mm 25.0 W/m2 BKN
08:42 5.6 °C 4.3 °C 1019.5 hPa NNE 3.7 km/h 3.7 km/h 92 % 0.0 mm 28.0 W/m2 BKN
08:47 5.5 °C 4.3 °C 1019.2 hPa Calm     92 % 0.0 mm 32.0 W/m2 BKN
08:52 5.5 °C 4.3 °C 1019.2 hPa Calm     92 % 0.0 mm 35.0 W/m2 BKN
08:57 5.6 °C 4.4 °C 1019.2 hPa Calm     92 % 0.0 mm 40.0 W/m2 BKN
09:02 5.7 °C 4.4 °C 1019.5 hPa SSW 3.7 km/h 3.7 km/h 92 % 0.0 mm 46.0 W/m2 BKN
09:07 5.7 °C 4.4 °C 1019.2 hPa Calm     92 % 0.0 mm 49.0 W/m2 BKN
09:12 5.7 °C 4.5 °C 1019.2 hPa Calm     92 % 0.0 mm 54.0 W/m2 SCT
09:17 5.8 °C 4.6 °C 1019.5 hPa Calm     92 % 0.0 mm 60.0 W/m2 SCT
09:22 5.9 °C 4.7 °C 1019.5 hPa Calm     92 % 0.0 mm 63.0 W/m2 SCT
09:27 6.1 °C 4.8 °C 1019.2 hPa Calm     92 % 0.0 mm 69.0 W/m2 SCT
09:32 6.3 °C 5.1 °C 1019.2 hPa Calm     92 % 0.0 mm 72.0 W/m2 FEW
09:37 6.5 °C 5.3 °C 1019.2 hPa Calm     92 % 0.0 mm 77.0 W/m2 FEW
09:42 6.6 °C 5.3 °C 1019.2 hPa Calm     92 % 0.0 mm 79.0 W/m2 FEW
09:47 6.6 °C 5.2 °C 1019.2 hPa Calm     91 % 0.0 mm 83.0 W/m2 FEW
09:52 6.6 °C 5.2 °C 1019.2 hPa Calm     91 % 0.0 mm 86.0 W/m2 FEW
09:57 6.6 °C 5.2 °C 1019.2 hPa Calm     91 % 0.0 mm 88.0 W/m2 CLR
10:02 6.7 °C 5.3 °C 1018.8 hPa Calm     91 % 0.0 mm 91.0 W/m2 CLR
10:07 6.8 °C 5.4 °C 1019.2 hPa Calm     91 % 0.0 mm 95.0 W/m2 CLR
10:12 6.9 °C 5.5 °C 1019.2 hPa Calm     91 % 0.0 mm 100.0 W/m2 CLR
10:17 7.0 °C 5.6 °C 1019.2 hPa Calm     91 % 0.0 mm 107.0 W/m2 CLR
10:18 7.1 °C 5.7 °C 1019.2 hPa Calm     91 % 0.0 mm 107.0 W/m2 CLR
10:22 7.1 °C 5.7 °C 1019.2 hPa Calm     91 % 0.0 mm 113.0 W/m2 CLR
10:27 7.2 °C 5.8 °C 1019.2 hPa Calm     91 % 0.0 mm 121.0 W/m2 CLR
10:32 7.4 °C 6.1 °C 1019.2 hPa Calm     91 % 0.0 mm 128.0 W/m2 CLR
10:37 7.6 °C 6.0 °C 1018.8 hPa Calm     90 % 0.0 mm 134.0 W/m2 CLR
10:42 7.6 °C 6.1 °C 1018.8 hPa Calm     90 % 0.0 mm 141.0 W/m2 CLR
10:47 7.7 °C 6.2 °C 1018.8 hPa Calm     90 % 0.0 mm 146.0 W/m2 CLR
10:52 7.8 °C 6.1 °C 1019.2 hPa Calm     89 % 0.0 mm 149.0 W/m2 CLR
10:57 7.9 °C 6.2 °C 1018.8 hPa Calm     89 % 0.0 mm 155.0 W/m2 CLR
11:03 8.1 °C 6.4 °C 1018.5 hPa Calm     89 % 0.0 mm 158.0 W/m2 CLR
11:08 8.2 °C 6.3 °C 1018.5 hPa Calm     88 % 0.0 mm 162.0 W/m2 CLR
11:13 8.3 °C 6.4 °C 1018.5 hPa Calm     88 % 0.0 mm 165.0 W/m2 CLR
11:18 8.4 °C 6.4 °C 1018.5 hPa Calm     87 % 0.0 mm 171.0 W/m2 CLR
11:23 8.6 °C 6.5 °C 1018.5 hPa Calm     87 % 0.0 mm 181.0 W/m2 CLR
11:28 8.7 °C 6.6 °C 1018.5 hPa Calm     87 % 0.0 mm 195.0 W/m2 CLR
11:33 8.8 °C 6.6 °C 1018.5 hPa Calm     86 % 0.0 mm 216.0 W/m2 CLR
11:38 9.1 °C 6.9 °C 1018.5 hPa Calm     86 % 0.0 mm 227.0 W/m2 CLR
11:43 9.3 °C 6.9 °C 1018.5 hPa Calm     85 % 0.0 mm 234.0 W/m2 CLR
11:48 9.7 °C 7.0 °C 1018.5 hPa Calm     83 % 0.0 mm 236.0 W/m2 CLR
11:53 10.1 °C 7.1 °C 1018.5 hPa Calm     82 % 0.0 mm 232.0 W/m2 CLR
11:58 10.2 °C 7.2 °C 1018.5 hPa Calm     82 % 0.0 mm 221.0 W/m2 CLR
12:03 10.4 °C 7.4 °C 1018.5 hPa Calm     82 % 0.0 mm 214.0 W/m2 CLR
12:08 10.6 °C 7.4 °C 1018.5 hPa Calm     81 % 0.0 mm 209.0 W/m2 CLR
12:13 10.8 °C 7.4 °C 1018.5 hPa Calm     80 % 0.0 mm 199.0 W/m2 CLR
12:18 11.0 °C 7.5 °C 1018.5 hPa Calm     79 % 0.0 mm 188.0 W/m2 CLR
12:23 11.2 °C 7.4 °C 1018.5 hPa Calm     78 % 0.0 mm 192.0 W/m2 CLR
12:28 11.4 °C 7.5 °C 1018.5 hPa Calm     77 % 0.0 mm 202.0 W/m2 CLR
12:33 11.6 °C 7.7 °C 1018.5 hPa Calm     77 % 0.0 mm 218.0 W/m2 CLR
12:38 11.7 °C 7.8 °C 1018.2 hPa Calm     77 % 0.0 mm 230.0 W/m2 CLR
12:43 11.8 °C 7.7 °C 1018.2 hPa Calm     76 % 0.0 mm 230.0 W/m2 CLR
12:48 11.9 °C 7.6 °C 1018.2 hPa Calm     75 % 0.0 mm 227.0 W/m2 CLR
12:53 11.9 °C 7.2 °C 1018.2 hPa ENE 5.6 km/h 5.6 km/h 73 % 0.0 mm 234.0 W/m2 CLR
12:58 11.9 °C 7.2 °C 1017.8 hPa Calm     73 % 0.0 mm 230.0 W/m2 CLR
13:03 12.0 °C 7.5 °C 1017.8 hPa Calm     74 % 0.0 mm 234.0 W/m2 CLR
13:08 12.1 °C 7.4 °C 1017.8 hPa Calm     73 % 0.0 mm 239.0 W/m2 CLR
13:13 12.2 °C 7.7 °C 1017.8 hPa Calm     74 % 0.0 mm 253.0 W/m2 CLR
13:18 12.3 °C 7.6 °C 1017.8 hPa ENE 4.8 km/h 4.8 km/h 73 % 0.0 mm 265.0 W/m2 CLR
13:23 12.3 °C 7.6 °C 1017.5 hPa ENE 5.6 km/h 5.6 km/h 73 % 0.0 mm 276.0 W/m2 CLR
13:28 12.4 °C 7.9 °C 1017.5 hPa Calm     74 % 0.0 mm 290.0 W/m2 CLR
13:33 12.6 °C 8.1 °C 1017.5 hPa ENE 7.4 km/h 7.4 km/h 74 % 0.0 mm 276.0 W/m2 CLR
13:38 12.7 °C 7.7 °C 1017.2 hPa NE 5.6 km/h 5.6 km/h 72 % 0.0 mm 258.0 W/m2 CLR
13:43 12.8 °C 8.1 °C 1017.2 hPa ENE 5.6 km/h 5.6 km/h 73 % 0.0 mm 243.0 W/m2 CLR
13:48 12.8 °C 8.3 °C 1016.8 hPa ENE 9.3 km/h 9.3 km/h 74 % 0.0 mm 241.0 W/m2 CLR
13:53 12.8 °C 8.1 °C 1016.8 hPa ENE 5.6 km/h 5.6 km/h 73 % 0.0 mm 251.0 W/m2 CLR
13:58 12.8 °C 8.1 °C 1016.8 hPa ENE 5.6 km/h   73 % 0.0 mm 276.0 W/m2 CLR
14:03 12.8 °C 8.3 °C 1016.5 hPa ENE 5.6 km/h 5.6 km/h 74 % 0.0 mm 294.0 W/m2 CLR
14:08 13.0 °C 8.3 °C 1016.5 hPa Calm     73 % 0.0 mm 290.0 W/m2 CLR
14:13 13.1 °C 7.8 °C 1016.1 hPa Calm     70 % 0.0 mm 281.0 W/m2 CLR
14:18 13.3 °C 8.1 °C 1016.1 hPa NE 5.6 km/h 5.6 km/h 71 % 0.0 mm 279.0 W/m2 CLR
14:23 13.3 °C 8.0 °C 1016.1 hPa Calm     70 % 0.0 mm 287.0 W/m2 CLR
14:28 13.4 °C 7.8 °C 1015.8 hPa Calm     69 % 0.0 mm 325.0 W/m2 CLR
14:33 13.6 °C 7.8 °C 1015.8 hPa Calm     68 % 0.0 mm 466.0 W/m2 CLR
14:38 13.9 °C 8.1 °C 1015.8 hPa Calm     68 % 0.0 mm 489.0 W/m2 CLR
14:43 14.2 °C 8.3 °C 1015.5 hPa Calm     68 % 0.0 mm 345.0 W/m2 CLR
14:48 14.4 °C 8.3 °C 1015.5 hPa NE 7.4 km/h 7.4 km/h 67 % 0.0 mm 383.0 W/m2 CLR
14:53 14.4 °C 8.4 °C 1015.5 hPa NE 6.4 km/h 6.4 km/h 67 % 0.0 mm 387.0 W/m2 CLR
14:58 14.6 °C 8.3 °C 1015.5 hPa Calm     66 % 0.0 mm 359.0 W/m2 CLR
15:03 14.7 °C 8.2 °C 1015.1 hPa NE 7.4 km/h 7.4 km/h 65 % 0.0 mm 318.0 W/m2 CLR
15:08 14.7 °C 7.9 °C 1015.1 hPa Calm     64 % 0.0 mm 316.0 W/m2 CLR
15:13 14.6 °C 7.6 °C 1015.1 hPa NE 7.4 km/h 7.4 km/h 63 % 0.0 mm 315.0 W/m2 CLR
15:18 14.6 °C 7.8 °C 1015.1 hPa NE 8.0 km/h 8.0 km/h 64 % 0.0 mm 329.0 W/m2 CLR
15:23 14.6 °C 7.7 °C 1014.8 hPa NE 9.7 km/h 9.7 km/h 63 % 0.0 mm 294.0 W/m2 CLR
15:28 14.6 °C 7.3 °C 1014.8 hPa NE 9.3 km/h 9.3 km/h 62 % 0.0 mm 338.0 W/m2 CLR
15:33 14.6 °C 7.6 °C 1014.8 hPa ENE 7.4 km/h 7.4 km/h 63 % 0.0 mm 489.0 W/m2 CLR
15:38 14.8 °C 8.1 °C 1014.8 hPa ENE 9.3 km/h 9.3 km/h 64 % 0.0 mm 564.0 W/m2 CLR
15:43 15.1 °C 8.1 °C 1014.8 hPa NE 8.0 km/h 8.0 km/h 63 % 0.0 mm 512.0 W/m2 CLR
15:48 15.3 °C 8.5 °C 1014.4 hPa NE 5.6 km/h 5.6 km/h 64 % 0.0 mm 283.0 W/m2 CLR
15:53 15.3 °C 8.1 °C 1014.4 hPa NE 5.6 km/h 5.6 km/h 62 % 0.0 mm 199.0 W/m2 CLR
15:58 15.2 °C 8.2 °C 1014.4 hPa NE 8.0 km/h 8.0 km/h 63 % 0.0 mm 190.0 W/m2 CLR
16:03 15.1 °C 7.8 °C 1014.4 hPa ENE 1.6 km/h 1.6 km/h 62 % 0.0 mm 234.0 W/m2 CLR
16:08 14.8 °C 7.6 °C 1014.8 hPa ENE 7.4 km/h 7.4 km/h 62 % 0.0 mm 193.0 W/m2 CLR
16:13 14.8 °C 8.3 °C 1014.4 hPa ENE 3.7 km/h 3.7 km/h 65 % 0.0 mm 223.0 W/m2 CLR
16:18 14.7 °C 8.0 °C 1014.8 hPa East 3.7 km/h   64 % 0.0 mm 288.0 W/m2 CLR
16:23 14.8 °C 8.3 °C 1014.8 hPa ENE 7.4 km/h 7.4 km/h 65 % 0.0 mm 380.0 W/m2 CLR
16:28 14.9 °C 8.4 °C 1014.4 hPa NE 5.6 km/h 5.6 km/h 65 % 0.0 mm 406.0 W/m2 CLR
16:34 14.9 °C 8.4 °C 1014.8 hPa Calm     65 % 0.0 mm 278.0 W/m2 CLR
16:39 14.9 °C 8.2 °C 1014.8 hPa Calm     64 % 0.0 mm 221.0 W/m2 CLR
16:44 14.9 °C 8.4 °C 1014.4 hPa Calm     65 % 0.0 mm 214.0 W/m2 CLR
16:49 14.9 °C 8.7 °C 1014.4 hPa Calm     66 % 0.0 mm 209.0 W/m2 CLR
16:54 15.0 °C 8.7 °C 1014.4 hPa NE 6.4 km/h 6.4 km/h 66 % 0.0 mm 155.0 W/m2 CLR
16:59 14.9 °C 8.4 °C 1014.4 hPa NNE 5.6 km/h 5.6 km/h 65 % 0.0 mm 146.0 W/m2 CLR
17:04 14.8 °C 8.8 °C 1014.1 hPa NE 7.4 km/h 7.4 km/h 67 % 0.0 mm 160.0 W/m2 CLR
17:09 14.7 °C 8.9 °C 1014.1 hPa NE 6.4 km/h 6.4 km/h 68 % 0.0 mm 141.0 W/m2 CLR
17:14 14.7 °C 8.9 °C 1014.1 hPa NNE 5.6 km/h 5.6 km/h 68 % 0.0 mm 146.0 W/m2 CLR
17:19 14.7 °C 8.8 °C 1014.1 hPa ENE 5.6 km/h 5.6 km/h 68 % 0.0 mm 127.0 W/m2 CLR
17:24 14.6 °C 8.9 °C 1014.1 hPa East 8.0 km/h 8.0 km/h 69 % 0.0 mm 132.0 W/m2 CLR
17:29 14.4 °C 9.2 °C 1014.1 hPa NE 9.3 km/h 9.3 km/h 71 % 0.0 mm 142.0 W/m2 CLR
17:34 14.3 °C 9.3 °C 1014.1 hPa NE 9.3 km/h 9.3 km/h 72 % 0.0 mm 121.0 W/m2 CLR
17:39 14.2 °C 9.4 °C 1014.1 hPa NE 7.4 km/h 7.4 km/h 73 % 0.0 mm 123.0 W/m2 CLR
17:44 14.1 °C 9.5 °C 1014.1 hPa North 6.4 km/h 6.4 km/h 74 % 0.0 mm 130.0 W/m2 CLR
17:49 14.0 °C 9.6 °C 1014.4 hPa North 5.6 km/h 5.6 km/h 75 % 0.0 mm 123.0 W/m2 CLR
17:54 13.9 °C 9.7 °C 1014.4 hPa Calm     76 % 0.0 mm 104.0 W/m2 CLR
17:59 13.9 °C 9.7 °C 1014.4 hPa Calm     76 % 0.0 mm 81.0 W/m2 FEW
18:04 13.8 °C 9.6 °C 1014.4 hPa Calm     76 % 0.0 mm 72.0 W/m2 FEW
18:09 13.7 °C 9.5 °C 1014.4 hPa Calm     76 % 0.0 mm 63.0 W/m2 SCT
18:14 13.5 °C 9.6 °C 1014.1 hPa NNE 5.6 km/h 5.6 km/h 77 % 0.0 mm 46.0 W/m2 SCT
18:19 13.3 °C 9.4 °C 1014.4 hPa Calm     77 % 0.0 mm 37.0 W/m2 BKN
18:24 13.2 °C 9.4 °C 1014.1 hPa Calm   0.2 km/h 78 % 0.0 mm 28.0 W/m2 BKN
18:29 13.1 °C 9.3 °C 1014.1 hPa North 5.6 km/h 5.6 km/h 78 % 0.0 mm 21.0 W/m2 BKN
18:34 12.9 °C 9.3 °C 1014.4 hPa North 3.7 km/h   79 % 0.0 mm 11.0 W/m2 BKN
18:39 12.7 °C 9.2 °C 1014.4 hPa Calm     79 % 0.0 mm 5.0 W/m2 OVC
18:44 12.6 °C 9.1 °C 1014.1 hPa Calm     79 % 0.0 mm 0.0 W/m2 OVC
18:49 12.5 °C 9.2 °C 1014.1 hPa Calm     80 % 0.0 mm 0.0 W/m2 OVC
18:54 12.3 °C 9.0 °C 1014.4 hPa Calm     80 % 0.0 mm 0.0 W/m2 CLR
18:59 12.3 °C 8.9 °C 1014.4 hPa Calm     80 % 0.0 mm 0.0 W/m2 CLR
19:04 12.1 °C 8.9 °C 1014.8 hPa Calm     81 % 0.0 mm 0.0 W/m2 CLR
19:07 12.1 °C 8.9 °C 1014.8 hPa Calm     81 % 0.0 mm 0.0 W/m2 CLR
19:12 11.9 °C 8.8 °C 1014.8 hPa Calm     81 % 0.0 mm 0.0 W/m2 CLR
19:17 11.8 °C 8.8 °C 1014.8 hPa Calm     82 % 0.0 mm 0.0 W/m2 CLR
19:22 11.7 °C 8.7 °C 1014.8 hPa Calm     82 % 0.0 mm 0.0 W/m2 CLR
19:27 11.6 °C 8.8 °C 1014.8 hPa Calm     83 % 0.0 mm 0.0 W/m2 CLR
19:32 11.6 °C 8.8 °C 1014.8 hPa Calm     83 % 0.0 mm 0.0 W/m2 CLR
19:37 11.4 °C 8.7 °C 1014.8 hPa Calm     83 % 0.0 mm 0.0 W/m2 CLR
19:42 11.3 °C 8.7 °C 1014.8 hPa Calm     84 % 0.0 mm 0.0 W/m2 CLR
19:47 11.3 °C 8.7 °C 1014.8 hPa Calm     84 % 0.0 mm 0.0 W/m2 CLR
19:52 11.2 °C 8.6 °C 1015.1 hPa Calm     84 % 0.0 mm 0.0 W/m2 CLR
19:57 11.2 °C 8.6 °C 1014.8 hPa Calm     84 % 0.0 mm 0.0 W/m2 CLR
20:02 11.2 °C 8.6 °C 1015.1 hPa Calm     84 % 0.0 mm 0.0 W/m2 CLR
20:07 11.2 °C 8.7 °C 1015.1 hPa Calm     85 % 0.0 mm 0.0 W/m2 CLR
20:12 11.1 °C 8.7 °C 1014.8 hPa Calm     85 % 0.0 mm 0.0 W/m2 CLR
20:17 11.1 °C 8.7 °C 1015.1 hPa Calm     85 % 0.0 mm 0.0 W/m2 CLR
20:22 11.1 °C 8.6 °C 1015.1 hPa Calm     85 % 0.0 mm 0.0 W/m2 CLR
20:27 11.0 °C 8.6 °C 1014.8 hPa Calm     85 % 0.0 mm 0.0 W/m2 CLR
20:32 11.0 °C 8.7 °C 1014.8 hPa Calm     86 % 0.0 mm 0.0 W/m2 CLR
20:37 10.9 °C 8.7 °C 1014.8 hPa Calm     86 % 0.0 mm 0.0 W/m2 CLR
20:42 10.9 °C 8.6 °C 1015.1 hPa Calm     86 % 0.0 mm 0.0 W/m2 CLR
20:47 10.8 °C 8.8 °C 1015.1 hPa Calm     87 % 0.0 mm 0.0 W/m2 CLR
20:52 10.8 °C 8.8 °C 1015.1 hPa Calm     87 % 0.0 mm 0.0 W/m2 CLR
20:57 10.8 °C 8.7 °C 1015.1 hPa Calm     87 % 0.0 mm 0.0 W/m2 CLR
21:02 10.7 °C 8.7 °C 1015.5 hPa Calm     87 % 0.0 mm 0.0 W/m2 CLR
21:07 10.7 °C 8.8 °C 1015.1 hPa Calm     88 % 0.0 mm 0.0 W/m2 CLR
21:12 10.6 °C 8.7 °C 1015.1 hPa Calm     88 % 0.0 mm 0.0 W/m2 CLR
21:17 10.7 °C 8.8 °C 1015.5 hPa Calm     88 % 0.0 mm 0.0 W/m2 CLR
21:22 10.6 °C 8.7 °C 1015.1 hPa Calm     88 % 0.0 mm 0.0 W/m2 CLR
21:27 10.6 °C 8.7 °C 1015.1 hPa Calm     88 % 0.0 mm 0.0 W/m2 CLR
21:32 10.5 °C 8.6 °C 1015.1 hPa Calm     88 % 0.0 mm 0.0 W/m2 CLR
21:37 10.4 °C 8.7 °C 1015.1 hPa Calm     89 % 0.0 mm 0.0 W/m2 CLR
21:42 10.4 °C 8.7 °C 1015.1 hPa Calm     89 % 0.0 mm 0.0 W/m2 CLR
21:47 10.4 °C 8.7 °C 1015.1 hPa Calm     89 % 0.0 mm 0.0 W/m2 CLR
21:52 10.4 °C 8.7 °C 1015.1 hPa Calm     89 % 0.0 mm 0.0 W/m2 CLR
21:57 10.3 °C 8.6 °C 1015.1 hPa Calm     89 % 0.0 mm 0.0 W/m2 CLR
22:02 10.2 °C 8.5 °C 1014.8 hPa Calm     89 % 0.0 mm 0.0 W/m2 CLR
22:07 10.1 °C 8.4 °C 1014.8 hPa Calm     89 % 0.0 mm 0.0 W/m2 CLR
22:12 10.1 °C 8.3 °C 1014.8 hPa Calm     89 % 0.0 mm 0.0 W/m2 CLR
22:17 10.0 °C 8.4 °C 1014.8 hPa Calm     90 % 0.0 mm 0.0 W/m2 CLR
22:22 9.9 °C 8.4 °C 1014.8 hPa Calm     90 % 0.0 mm 0.0 W/m2 CLR
22:27 9.9 °C 8.4 °C 1015.1 hPa Calm     90 % 0.0 mm 0.0 W/m2 CLR
22:32 9.9 °C 8.3 °C 1015.1 hPa Calm     90 % 0.0 mm 0.0 W/m2 CLR
22:37 9.9 °C 8.3 °C 1015.1 hPa Calm     90 % 0.0 mm 0.0 W/m2 CLR
22:42 9.8 °C 8.3 °C 1014.8 hPa Calm     90 % 0.0 mm 0.0 W/m2 CLR
22:47 9.7 °C 8.2 °C 1014.8 hPa Calm     90 % 0.0 mm 0.0 W/m2 CLR
22:52 9.6 °C 8.0 °C 1014.8 hPa Calm     90 % 0.0 mm 0.0 W/m2 CLR
22:57 9.5 °C 7.9 °C 1014.8 hPa Calm     90 % 0.0 mm 0.0 W/m2 CLR
23:03 9.4 °C 7.9 °C 1014.8 hPa Calm     90 % 0.0 mm 0.0 W/m2 CLR
23:08 9.4 °C 7.8 °C 1014.8 hPa Calm     90 % 0.0 mm 0.0 W/m2 CLR
23:13 9.3 °C 7.8 °C 1014.8 hPa Calm     90 % 0.0 mm 0.0 W/m2 CLR
23:18 9.2 °C 7.7 °C 1014.8 hPa Calm     90 % 0.0 mm 0.0 W/m2 CLR
23:23 9.2 °C 7.8 °C 1015.1 hPa West 1.9 km/h   91 % 0.0 mm 0.0 W/m2 CLR
23:28 9.2 °C 7.8 °C 1015.1 hPa Calm     91 % 0.0 mm 0.0 W/m2 CLR
23:33 9.1 °C 7.6 °C 1015.1 hPa Calm     90 % 0.0 mm 0.0 W/m2 CLR
23:38 8.9 °C 7.3 °C 1015.1 hPa Calm     90 % 0.0 mm 0.0 W/m2 CLR
23:43 8.8 °C 7.4 °C 1015.1 hPa Calm     91 % 0.0 mm 0.0 W/m2 CLR
23:48 8.7 °C 7.3 °C 1015.1 hPa Calm     91 % 0.0 mm 0.0 W/m2 CLR
23:53 8.7 °C 7.3 °C 1015.1 hPa Calm     91 % 0.0 mm 0.0 W/m2 CLR
23:58 8.6 °C 7.2 °C 1015.1 hPa Calm     91 % 0.0 mm 0.0 W/m2 CLR
Lo Temps de Massalio
Compliments of Weather Underground - 1.25 mb